Time;durP1;ratioP1;P1;durP2;ratioP2;P2;SDS_P1;SDS_P2;PMS_P1;PMS_P2;Temp;Humidity;BMP_temperature;BMP_pressure;BME280_temperature;BME280_humidity;BME280_pressure;Samples;Min_cycle;Max_cycle;Signal;HPM_P1;HPM_P2
2023/06/06 00:04:30;;;;;;;2.80;2.40;;;;;;;18.24;40.38;99880.66;10383443;28;20229;-63
2023/06/06 00:09:32;;;;;;;3.43;2.93;;;;;;;17.98;41.52;99871.03;10389564;28;20236;-65
2023/06/06 00:14:34;;;;;;;3.80;3.00;;;;;;;17.87;42.00;99886.22;10389645;28;20266;-65
2023/06/06 00:19:42;;;;;;;4.27;2.90;;;;;;;17.38;42.88;99871.03;10386996;28;20313;-64
2023/06/06 00:24:45;;;;;;;4.00;2.70;;;;;;;17.87;42.71;99872.69;10387838;28;20813;-64
2023/06/06 00:29:47;;;;;;;3.30;3.00;;;;;;;18.14;42.72;99887.69;10388874;28;20255;-64
2023/06/06 00:34:49;;;;;;;4.77;2.60;;;;;;;17.48;42.83;99898.38;10375033;28;20247;-65
2023/06/06 00:39:51;;;;;;;5.03;2.40;;;;;;;18.51;42.36;99879.38;10387796;28;20211;-65
2023/06/06 00:44:52;;;;;;;4.57;2.83;;;;;;;16.66;44.97;99879.72;10398115;28;20258;-63
2023/06/06 00:49:55;;;;;;;4.17;2.70;;;;;;;17.33;44.05;99894.19;10383565;28;20284;-65
2023/06/06 00:54:57;;;;;;;4.80;2.60;;;;;;;17.99;43.80;99877.31;10385251;28;20320;-65
2023/06/06 00:59:59;;;;;;;5.07;3.20;;;;;;;17.35;44.52;99902.06;10389485;28;20254;-65
2023/06/06 01:05:01;;;;;;;4.77;2.57;;;;;;;18.30;43.93;99887.03;10385924;28;20237;-64
2023/06/06 01:10:05;;;;;;;3.73;2.73;;;;;;;17.69;44.41;99889.78;10379412;28;20302;-64
2023/06/06 01:15:16;;;;;;;3.00;2.70;;;;;;;17.99;44.51;99898.97;10380454;28;20241;-66
2023/06/06 01:20:21;;;;;;;4.70;2.67;;;;;;;16.71;46.69;99901.50;10382603;28;20232;-64
2023/06/06 01:25:25;;;;;;;6.27;4.20;;;;;;;17.43;46.45;99898.25;10381900;28;20314;-64
2023/06/06 01:30:28;;;;;;;6.20;3.80;;;;;;;16.75;47.71;99894.56;10384735;28;20241;-64
2023/06/06 01:35:32;;;;;;;6.67;3.40;;;;;;;16.53;48.02;99894.16;10379366;28;20929;-64
2023/06/06 01:40:36;;;;;;;4.13;3.57;;;;;;;16.08;49.26;99897.81;10393598;28;20653;-65
2023/06/06 01:45:39;;;;;;;3.77;3.27;;;;;;;17.57;47.66;99897.00;10432023;28;20243;-67
2023/06/06 01:50:43;;;;;;;5.47;3.40;;;;;;;16.80;48.93;99908.25;10429989;28;20345;-64
2023/06/06 01:55:44;;;;;;;4.00;3.30;;;;;;;16.15;49.94;99914.78;10427115;28;20236;-63
2023/06/06 02:00:46;;;;;;;5.33;3.47;;;;;;;17.78;47.48;99903.84;10429118;28;20260;-65
2023/06/06 02:05:48;;;;;;;4.10;3.53;;;;;;;17.39;47.80;99908.66;10428333;28;20382;-65
2023/06/06 02:10:50;;;;;;;3.30;3.00;;;;;;;16.91;48.94;99937.25;10423656;28;20311;-65
2023/06/06 02:15:52;;;;;;;4.03;3.40;;;;;;;16.03;51.20;99924.63;10426578;28;20726;-64
2023/06/06 02:20:54;;;;;;;5.67;3.80;;;;;;;16.31;50.43;99934.22;10424998;28;20224;-65
2023/06/06 02:25:55;;;;;;;3.87;3.23;;;;;;;15.66;51.77;99929.81;10425586;28;20232;-64
2023/06/06 02:30:57;;;;;;;4.43;3.50;;;;;;;17.18;49.59;99931.59;10420293;28;20228;-63
2023/06/06 02:36:00;;;;;;;4.60;3.40;;;;;;;16.41;50.67;99946.19;10428522;28;20227;-64
2023/06/06 02:41:02;;;;;;;4.90;3.60;;;;;;;16.60;51.38;99936.28;10429526;28;20228;-65
2023/06/06 02:46:04;;;;;;;5.40;4.03;;;;;;;16.66;51.21;99947.25;10426767;28;20723;-64
2023/06/06 02:51:07;;;;;;;5.20;3.80;;;;;;;16.69;50.54;99949.53;10426613;28;21006;-67
2023/06/06 02:56:12;;;;;;;4.33;3.90;;;;;;;16.11;51.85;99954.06;10430427;28;20318;-64
2023/06/06 03:01:13;;;;;;;6.13;4.87;;;;;;;16.16;52.23;99954.25;10425121;28;20639;-64
2023/06/06 03:06:15;;;;;;;4.97;4.10;;;;;;;16.22;52.24;99958.75;10418143;28;20236;-62
2023/06/06 03:11:17;;;;;;;6.90;4.43;;;;;;;17.39;49.89;99961.94;10422835;28;20223;-66
2023/06/06 03:16:19;;;;;;;5.73;4.03;;;;;;;15.90;52.33;99981.38;10423616;28;20281;-63
2023/06/06 03:21:22;;;;;;;5.33;4.00;;;;;;;16.03;52.24;99992.13;10422298;28;20314;-66
2023/06/06 03:26:26;;;;;;;5.23;4.43;;;;;;;16.93;50.45;99964.06;10422448;28;20243;-63
2023/06/06 03:31:29;;;;;;;5.17;4.40;;;;;;;16.96;50.74;99977.97;10422783;28;20365;-68
2023/06/06 03:36:32;;;;;;;5.83;4.97;;;;;;;16.16;52.12;100004.69;10422139;28;20255;-68
2023/06/06 03:41:34;;;;;;;7.27;4.77;;;;;;;17.29;50.27;99978.69;10418215;28;20311;-64
2023/06/06 03:46:36;;;;;;;4.67;4.17;;;;;;;16.21;51.89;99994.91;10424230;28;20254;-65
2023/06/06 03:51:40;;;;;;;5.50;4.20;;;;;;;17.48;49.97;100017.41;10415800;28;20232;-64
2023/06/06 03:56:42;;;;;;;4.77;4.27;;;;;;;16.65;50.77;100003.19;10420577;28;20263;-67
2023/06/06 04:01:44;;;;;;;5.07;4.43;;;;;;;15.54;53.23;100025.88;10417333;28;20898;-70
2023/06/06 04:06:46;;;;;;;5.33;4.73;;;;;;;15.56;53.12;100011.19;10412400;28;20263;-69
2023/06/06 04:11:47;;;;;;;5.03;4.20;;;;;;;15.99;52.95;100017.84;10421552;28;20242;-69
2023/06/06 04:16:49;;;;;;;6.90;5.00;;;;;;;15.54;53.49;100036.66;10429825;28;20777;-69
2023/06/06 04:21:51;;;;;;;4.83;4.20;;;;;;;16.22;52.11;100038.94;10413667;28;20240;-67
2023/06/06 04:26:53;;;;;;;5.10;4.43;;;;;;;16.24;51.68;100051.16;10429510;28;20621;-68
2023/06/06 04:31:55;;;;;;;5.87;4.70;;;;;;;15.24;53.16;100054.16;10424884;28;20279;-67
2023/06/06 04:37:05;;;;;;;6.23;4.80;;;;;;;15.87;51.91;100050.91;10425210;28;20808;-66
2023/06/06 04:42:07;;;;;;;4.97;4.43;;;;;;;15.25;52.35;100058.50;10425124;28;20774;-67
2023/06/06 04:47:10;;;;;;;6.67;4.43;;;;;;;15.83;52.18;100065.88;10415567;28;20245;-70
2023/06/06 04:52:15;;;;;;;5.57;4.33;;;;;;;16.19;51.84;100059.06;10430943;28;20235;-68
2023/06/06 04:57:19;;;;;;;5.13;4.40;;;;;;;16.16;51.17;100062.22;10430866;28;20232;-67
2023/06/06 05:02:23;;;;;;;4.90;4.30;;;;;;;16.78;50.46;100057.09;10430147;28;20235;-70
2023/06/06 05:07:26;;;;;;;5.93;4.00;;;;;;;17.58;48.80;100031.25;10421870;28;20232;-70
2023/06/06 05:12:28;;;;;;;5.30;4.20;;;;;;;17.82;48.52;100018.69;10420035;28;20239;-70
2023/06/06 05:17:30;;;;;;;5.67;4.27;;;;;;;17.98;47.51;99998.28;10428131;28;20240;-70
2023/06/06 05:22:31;;;;;;;4.87;4.00;;;;;;;18.06;47.08;100000.69;10424798;28;20234;-68
2023/06/06 05:27:33;;;;;;;4.73;4.07;;;;;;;17.64;47.90;100007.88;10417704;28;20341;-70
2023/06/06 05:32:35;;;;;;;5.63;3.90;;;;;;;18.70;47.10;100005.63;10420527;28;20237;-68
2023/06/06 05:37:36;;;;;;;5.77;3.93;;;;;;;18.59;46.60;99991.00;10427459;28;20715;-68
2023/06/06 05:42:38;;;;;;;4.47;3.67;;;;;;;18.25;46.63;100020.44;10421501;28;20318;-71
2023/06/06 05:47:40;;;;;;;3.70;3.30;;;;;;;18.41;46.42;100021.69;10416176;28;20243;-68
2023/06/06 05:52:42;;;;;;;4.80;3.50;;;;;;;17.72;47.17;100023.81;10423542;28;20768;-69
2023/06/06 05:57:43;;;;;;;4.63;3.87;;;;;;;18.31;46.62;99991.63;10426788;28;20326;-71
2023/06/06 06:02:45;;;;;;;6.40;3.70;;;;;;;18.42;46.08;100028.78;10426961;28;20228;-68
2023/06/06 06:07:53;;;;;;;4.10;3.57;;;;;;;18.25;47.04;100025.00;10424263;28;21103;-70
2023/06/06 06:12:55;;;;;;;3.20;2.90;;;;;;;19.50;44.54;99978.97;10424286;28;20282;-68
2023/06/06 06:17:57;;;;;;;3.37;3.07;;;;;;;18.58;44.79;99991.22;10417675;28;20239;-69
2023/06/06 06:22:59;;;;;;;5.83;3.27;;;;;;;17.71;46.84;100035.69;10422700;28;20239;-69
2023/06/06 06:28:02;;;;;;;3.73;3.23;;;;;;;19.63;44.57;99978.72;10423863;28;20224;-69
2023/06/06 06:33:03;;;;;;;4.57;3.23;;;;;;;20.24;43.67;99949.22;10422967;28;20256;-69
2023/06/06 06:38:05;;;;;;;3.35;3.00;;;;;;;19.25;43.96;99971.94;10427161;28;20250;-68
2023/06/06 06:43:07;;;;;;;5.22;3.58;;;;;;;18.87;44.48;100024.72;10424936;28;20219;-68
2023/06/06 06:48:09;;;;;;;4.73;3.10;;;;;;;19.84;44.11;99943.81;10426701;28;20235;-69
2023/06/06 06:53:13;;;;;;;5.67;2.90;;;;;;;19.07;43.44;99983.75;10425560;28;20236;-68
2023/06/06 06:58:25;;;;;;;6.00;3.60;;;;;;;19.78;43.97;99989.06;10423255;28;20267;-67
2023/06/06 07:03:28;;;;;;;3.77;3.33;;;;;;;18.48;45.00;99993.69;10425416;28;20263;-70
2023/06/06 07:08:30;;;;;;;3.60;3.20;;;;;;;20.43;43.08;99954.41;10418956;28;20319;-70
2023/06/06 07:13:32;;;;;;;3.20;2.90;;;;;;;21.13;42.60;99957.69;10423184;28;20228;-68
2023/06/06 07:18:34;;;;;;;5.68;3.30;;;;;;;21.22;41.72;99918.91;10420193;28;20301;-69
2023/06/06 07:23:35;;;;;;;4.97;3.13;;;;;;;20.45;42.89;99944.13;10421380;28;20228;-68
2023/06/06 07:28:37;;;;;;;4.60;3.08;;;;;;;20.93;42.78;99934.56;10423799;28;20220;-68
2023/06/06 07:33:42;;;;;;;5.40;3.03;;;;;;;20.87;42.51;99921.97;10424550;28;20322;-71
2023/06/06 07:38:44;;;;;;;3.38;2.92;;;;;;;21.37;41.69;99915.59;10422985;28;20227;-70
2023/06/06 07:43:45;;;;;;;4.25;3.30;;;;;;;21.51;41.45;99886.09;10424406;28;20766;-69
2023/06/06 07:48:47;;;;;;;4.03;2.85;;;;;;;22.03;40.43;99908.41;10427821;28;20234;-67
2023/06/06 07:53:49;;;;;;;3.28;2.97;;;;;;;22.08;40.87;99894.81;10425370;28;20930;-68
2023/06/06 07:58:54;;;;;;;3.30;2.75;;;;;;;21.37;40.51;99912.03;10429788;28;20933;-69
2023/06/06 08:03:56;;;;;;;3.25;2.63;;;;;;;21.65;39.06;99874.78;10423586;28;20228;-68
2023/06/06 08:08:59;;;;;;;4.13;2.80;;;;;;;22.58;38.61;99901.78;10426457;28;20303;-67
2023/06/06 08:14:01;;;;;;;3.92;2.95;;;;;;;22.49;38.85;99885.06;10433455;28;20224;-68
2023/06/06 08:19:04;;;;;;;4.50;2.65;;;;;;;22.87;38.41;99863.22;10424270;28;20603;-70
2023/06/06 08:24:06;;;;;;;5.65;2.83;;;;;;;22.86;38.41;99861.59;10429168;28;20238;-70
2023/06/06 08:29:07;;;;;;;7.05;3.30;;;;;;;23.20;37.20;99845.66;10429429;28;20255;-70
2023/06/06 08:34:10;;;;;;;3.58;2.80;;;;;;;22.49;38.05;99870.63;10430205;28;20699;-68
2023/06/06 08:39:11;;;;;;;3.00;2.60;;;;;;;23.07;36.97;99843.44;10421653;28;20289;-69
2023/06/06 08:44:14;;;;;;;4.35;2.80;;;;;;;23.47;36.80;99838.38;10435503;28;20228;-68
2023/06/06 08:49:19;;;;;;;4.93;2.58;;;;;;;23.41;36.68;99843.00;10432357;28;20267;-68
2023/06/06 08:54:21;;;;;;;3.45;2.90;;;;;;;23.23;35.95;99826.03;10427015;28;20881;-70
2023/06/06 08:59:24;;;;;;;3.72;2.70;;;;;;;23.36;35.99;99853.91;10433413;28;20885;-68
2023/06/06 09:04:26;;;;;;;3.60;2.60;;;;;;;23.22;35.80;99832.56;10426801;28;20765;-71
2023/06/06 09:09:30;;;;;;;3.35;2.60;;;;;;;24.01;35.45;99816.06;10431058;28;20643;-70
2023/06/06 09:14:32;;;;;;;3.47;3.00;;;;;;;22.99;35.99;99833.00;10429212;28;20605;-70
2023/06/06 09:19:34;;;;;;;4.22;3.15;;;;;;;24.18;35.53;99793.91;10427913;28;20228;-69
2023/06/06 09:24:43;;;;;;;5.53;2.80;;;;;;;24.17;35.39;99795.84;10428259;28;20286;-68
2023/06/06 09:29:45;;;;;;;4.05;2.50;;;;;;;23.68;34.21;99790.09;10428721;28;20326;-68
2023/06/06 09:34:48;;;;;;;3.65;2.78;;;;;;;24.66;34.09;99798.97;10423519;28;20231;-69
2023/06/06 09:40:12;;;;;;;6.32;2.92;;;;;;;24.29;33.84;99811.97;10427029;28;20264;-70
2023/06/06 09:45:15;;;;;;;3.88;2.65;;;;;;;24.22;33.67;99805.94;10424211;28;21020;-69
2023/06/06 09:50:19;;;;;;;4.43;2.75;;;;;;;24.14;33.76;99790.91;10419266;28;20285;-70
2023/06/06 09:55:23;;;;;;;3.10;2.65;;;;;;;24.76;33.28;99751.66;10421591;28;20239;-70
2023/06/06 10:00:25;;;;;;;6.90;3.13;;;;;;;24.46;33.67;99754.22;10425333;28;20808;-73
2023/06/06 10:05:27;;;;;;;3.97;3.25;;;;;;;24.24;34.45;99790.09;10418962;28;20282;-73
2023/06/06 10:10:29;;;;;;;3.22;2.80;;;;;;;24.79;34.03;99773.78;10422624;28;20614;-72
2023/06/06 10:15:31;;;;;;;4.85;2.50;;;;;;;23.66;34.22;99803.22;10425298;28;20753;-73
2023/06/06 10:20:34;;;;;;;5.63;2.97;;;;;;;25.67;33.07;99733.00;10424958;28;20612;-73
2023/06/06 10:25:37;;;;;;;5.45;2.85;;;;;;;24.79;33.66;99724.53;10424423;28;20293;-69
2023/06/06 10:30:41;;;;;;;5.75;3.28;;;;;;;24.26;34.15;99756.97;10425476;28;20566;-71
2023/06/06 10:35:46;;;;;;;5.63;3.35;;;;;;;26.01;32.67;99697.34;10415806;28;20240;-71
2023/06/06 10:40:58;;;;;;;7.03;3.13;;;;;;;25.19;33.87;99705.44;10431223;28;20289;-70
2023/06/06 10:46:00;;;;;;;5.97;3.10;;;;;;;26.17;33.36;99697.97;10420804;28;20239;-68
2023/06/06 10:51:01;;;;;;;5.68;3.03;;;;;;;25.48;33.65;99711.78;10423536;28;20235;-70
2023/06/06 10:56:06;;;;;;;4.50;3.10;;;;;;;26.83;32.29;99650.84;10426389;28;20335;-68
2023/06/06 11:06:23;;;;;;;6.70;3.25;;;;;;;23.90;32.55;99784.34;10451331;28;20804;-71
2023/06/06 11:11:26;;;;;;;4.07;3.10;;;;;;;25.54;31.91;99700.78;10459454;28;20848;-71
2023/06/06 11:16:37;;;;;;;3.47;2.92;;;;;;;24.40;32.07;99771.72;10459367;28;20692;-70
2023/06/06 11:21:40;;;;;;;5.38;3.20;;;;;;;25.14;31.46;99724.63;10454043;28;20231;-68
2023/06/06 11:26:43;;;;;;;3.03;2.72;;;;;;;24.59;31.60;99739.09;10457329;28;20240;-69
2023/06/06 11:31:45;;;;;;;4.00;3.33;;;;;;;25.15;32.80;99739.94;10450007;28;20749;-69
2023/06/06 11:36:51;;;;;;;5.72;3.05;;;;;;;25.23;31.06;99740.19;10454276;28;20265;-72
2023/06/06 11:41:53;;;;;;;4.13;2.92;;;;;;;25.41;30.81;99721.44;10458879;28;20930;-69
2023/06/06 11:46:55;;;;;;;4.10;3.20;;;;;;;25.65;30.78;99711.34;10450690;28;20240;-70
2023/06/06 11:51:59;;;;;;;4.97;3.10;;;;;;;25.81;31.29;99670.97;10453551;28;20223;-70
2023/06/06 11:57:03;;;;;;;4.78;3.50;;;;;;;25.35;31.27;99730.78;10457699;28;20235;-71
2023/06/06 12:02:05;;;;;;;9.13;3.03;;;;;;;26.12;31.96;99676.13;10453683;28;20782;-69
2023/06/06 12:07:07;;;;;;;4.60;3.20;;;;;;;26.09;30.92;99704.09;10451932;28;20255;-68
2023/06/06 12:12:10;;;;;;;4.22;3.20;;;;;;;25.86;30.18;99675.59;10450544;28;20239;-70
2023/06/06 12:17:12;;;;;;;4.53;3.10;;;;;;;25.75;30.07;99696.78;10424637;28;20250;-70
2023/06/06 12:22:27;;;;;;;5.63;3.10;;;;;;;26.30;30.21;99687.44;10418987;28;20306;-71
2023/06/06 12:27:33;;;;;;;4.20;2.85;;;;;;;26.41;30.35;99677.97;10427742;28;20614;-71
2023/06/06 12:32:36;;;;;;;6.68;3.30;;;;;;;26.19;30.89;99684.78;10427757;28;20252;-68
2023/06/06 12:37:43;;;;;;;6.25;3.10;;;;;;;25.70;30.78;99717.91;10420991;28;20246;-68
2023/06/06 12:42:54;;;;;;;3.38;3.08;;;;;;;25.65;30.52;99699.59;10425508;28;20329;-69
2023/06/06 12:47:58;;;;;;;4.85;3.30;;;;;;;25.68;30.70;99711.91;10417882;28;20232;-69
2023/06/06 12:53:02;;;;;;;5.93;2.90;;;;;;;25.86;30.31;99713.97;10422468;28;20231;-68
2023/06/06 12:58:05;;;;;;;4.40;3.10;;;;;;;26.37;30.34;99677.75;10419572;28;20265;-68
2023/06/06 13:03:09;;;;;;;4.03;3.00;;;;;;;26.03;29.19;99699.81;10427966;28;20232;-69
2023/06/06 13:08:11;;;;;;;4.20;3.13;;;;;;;26.10;29.38;99703.00;10422934;28;20619;-68
2023/06/06 13:13:25;;;;;;;4.00;3.00;;;;;;;25.78;29.18;99698.16;10414386;28;20233;-71
2023/06/06 13:18:27;;;;;;;4.57;3.10;;;;;;;26.36;29.65;99675.31;10425471;28;20229;-71
2023/06/06 13:23:29;;;;;;;3.33;2.88;;;;;;;25.26;30.08;99730.59;10413387;28;20267;-70
2023/06/06 13:28:31;;;;;;;3.72;3.08;;;;;;;26.54;30.17;99644.34;10422047;28;20231;-69
2023/06/06 13:33:32;;;;;;;5.97;3.10;;;;;;;26.58;27.88;99656.34;10415600;28;20798;-70
2023/06/06 13:38:35;;;;;;;3.45;2.83;;;;;;;26.81;27.84;99670.34;10407126;28;20240;-69
2023/06/06 13:43:36;;;;;;;4.38;3.28;;;;;;;25.34;29.83;99721.78;10417605;28;20246;-69
2023/06/06 13:48:38;;;;;;;4.80;2.85;;;;;;;27.58;28.55;99596.84;10419103;28;20258;-68
2023/06/06 13:53:41;;;;;;;5.22;3.15;;;;;;;27.31;29.11;99623.16;10420684;28;20256;-68
2023/06/06 13:58:50;;;;;;;4.07;3.42;;;;;;;26.63;29.64;99666.44;10419563;28;20232;-68
2023/06/06 14:03:52;;;;;;;3.33;2.65;;;;;;;26.76;29.46;99638.28;10424097;28;20742;-70
2023/06/06 14:08:54;;;;;;;4.55;3.28;;;;;;;25.80;30.09;99695.94;10416256;28;20862;-68
2023/06/06 14:13:57;;;;;;;5.40;3.20;;;;;;;26.85;29.25;99607.44;10419740;28;20228;-69
2023/06/06 14:18:59;;;;;;;5.57;3.05;;;;;;;26.06;28.72;99660.00;10416711;28;20293;-69
2023/06/06 14:24:01;;;;;;;4.65;3.22;;;;;;;27.42;28.73;99599.09;10424229;28;20630;-71
2023/06/06 14:29:03;;;;;;;6.32;3.10;;;;;;;27.39;27.38;99618.91;10422969;28;20766;-69
2023/06/06 14:34:05;;;;;;;4.57;3.33;;;;;;;26.55;28.16;99681.66;10421838;28;20333;-66
2023/06/06 14:39:06;;;;;;;4.57;3.33;;;;;;;27.21;27.90;99635.13;10419066;28;20232;-67
2023/06/06 14:44:08;;;;;;;6.07;3.60;;;;;;;26.56;29.08;99669.53;10431757;28;20348;-68
2023/06/06 14:49:10;;;;;;;5.05;3.45;;;;;;;27.68;28.94;99602.97;10420965;28;20232;-67
2023/06/06 14:54:12;;;;;;;6.00;3.15;;;;;;;27.60;29.29;99602.84;10419633;28;20238;-67
2023/06/06 14:59:14;;;;;;;5.22;3.40;;;;;;;27.49;29.09;99591.25;10412767;28;20710;-67
2023/06/06 15:04:16;;;;;;;7.72;3.88;;;;;;;27.08;29.31;99657.84;10417309;28;20227;-74
2023/06/06 15:09:19;;;;;;;5.82;3.88;;;;;;;26.85;28.50;99632.94;10424647;28;20323;-71
2023/06/06 15:14:21;;;;;;;5.65;3.60;;;;;;;26.36;29.75;99689.03;10426154;28;20319;-69
2023/06/06 15:19:23;;;;;;;5.50;3.45;;;;;;;27.18;28.86;99632.16;10417365;28;20235;-75
2023/06/06 15:24:24;;;;;;;6.13;3.38;;;;;;;27.41;29.17;99638.66;10415318;28;20225;-74
2023/06/06 15:29:27;;;;;;;4.20;3.38;;;;;;;25.07;29.78;99723.03;10427793;28;20267;-73
2023/06/06 15:34:31;;;;;;;3.75;3.17;;;;;;;26.99;28.49;99626.69;10428680;28;20251;-73
2023/06/06 15:39:33;;;;;;;5.32;3.20;;;;;;;27.71;29.62;99601.56;10421748;28;20361;-67
2023/06/06 15:44:35;;;;;;;5.32;3.80;;;;;;;27.17;29.84;99622.28;10431110;28;20330;-66
2023/06/06 15:49:36;;;;;;;6.00;3.53;;;;;;;28.23;29.31;99577.41;10428644;28;20236;-66
2023/06/06 15:54:38;;;;;;;5.50;3.38;;;;;;;27.43;29.82;99595.19;10429838;28;20227;-64
2023/06/06 15:59:40;;;;;;;4.25;3.00;;;;;;;27.75;29.42;99607.28;10432660;28;20281;-66
2023/06/06 16:04:42;;;;;;;6.88;3.25;;;;;;;27.13;29.26;99633.06;10425919;28;20243;-66
2023/06/06 16:09:44;;;;;;;6.45;3.08;;;;;;;27.44;28.27;99627.88;10429219;28;20240;-66
2023/06/06 16:14:46;;;;;;;6.57;3.30;;;;;;;27.04;28.71;99656.81;10418465;28;20232;-65
2023/06/06 16:19:50;;;;;;;6.72;3.25;;;;;;;27.22;28.95;99635.97;10425043;28;20228;-65
2023/06/06 16:24:53;;;;;;;3.38;2.97;;;;;;;27.33;27.95;99642.91;10375195;28;20240;-65
2023/06/06 16:29:55;;;;;;;6.10;3.45;;;;;;;27.74;26.97;99597.41;10381337;28;20220;-65
2023/06/06 16:34:57;;;;;;;4.53;3.25;;;;;;;26.28;27.73;99700.63;10381610;28;20282;-65
2023/06/06 16:39:59;;;;;;;4.47;3.22;;;;;;;28.14;28.09;99600.41;10387593;28;20200;-65
2023/06/06 16:45:01;;;;;;;4.95;3.33;;;;;;;27.73;29.19;99623.25;10388609;28;20247;-66
2023/06/06 16:50:03;;;;;;;7.78;3.38;;;;;;;27.65;29.87;99614.59;10426050;28;20745;-66
2023/06/06 16:55:08;;;;;;;5.47;3.03;;;;;;;28.09;29.51;99611.53;10422581;28;20758;-66
2023/06/06 17:00:12;;;;;;;5.40;3.60;;;;;;;27.22;29.54;99641.47;10425770;28;20239;-65
2023/06/06 17:05:14;;;;;;;4.97;3.28;;;;;;;26.92;30.12;99662.75;9506713;28;10000559;-64
2023/06/06 17:10:17;;;;;;;5.18;3.40;;;;;;;27.51;29.65;99630.22;10361994;28;20264;-65
2023/06/06 17:15:18;;;;;;;6.35;3.38;;;;;;;26.86;30.32;99658.47;10376965;28;20263;-66
2023/06/06 17:20:20;;;;;;;5.63;3.30;;;;;;;26.97;30.54;99665.44;10372541;28;20236;-65
2023/06/06 17:25:22;;;;;;;4.55;3.20;;;;;;;27.40;29.95;99659.00;10377333;28;21063;-65
2023/06/06 17:30:36;;;;;;;4.05;3.17;;;;;;;27.36;30.20;99656.03;10373718;28;20233;-64
2023/06/06 17:35:38;;;;;;;4.10;2.97;;;;;;;27.41;29.84;99666.97;10372775;28;20311;-65
2023/06/06 17:40:40;;;;;;;4.97;3.08;;;;;;;27.52;29.86;99662.09;10377473;28;20247;-64
2023/06/06 17:45:42;;;;;;;4.47;3.33;;;;;;;26.92;30.70;99671.84;10375442;28;20881;-66
2023/06/06 17:50:44;;;;;;;5.65;3.13;;;;;;;25.82;31.61;99727.41;10344638;28;20312;-66
2023/06/06 17:55:46;;;;;;;5.18;3.30;;;;;;;24.83;32.23;99733.84;10330973;28;20873;-65
2023/06/06 18:00:48;;;;;;;4.72;2.80;;;;;;;24.70;32.42;99759.06;10338007;28;20233;-66
2023/06/06 18:05:50;;;;;;;3.65;2.90;;;;;;;25.01;32.09;99742.50;10344267;28;20238;-66
2023/06/06 18:10:52;;;;;;;3.35;2.78;;;;;;;23.99;33.46;99775.31;10385583;28;22015;-64
2023/06/06 18:15:54;;;;;;;3.50;2.80;;;;;;;25.82;31.70;99715.63;10369821;28;21089;-64
2023/06/06 18:20:56;;;;;;;4.82;2.97;;;;;;;25.59;32.04;99717.16;10340898;28;20237;-64
2023/06/06 18:25:57;;;;;;;4.97;3.13;;;;;;;25.91;31.53;99711.16;10348451;28;20621;-64
2023/06/06 18:31:00;;;;;;;3.83;2.38;;;;;;;25.39;31.89;99762.81;10375099;28;20353;-65
2023/06/06 18:36:02;;;;;;;3.90;2.60;;;;;;;24.42;32.72;99793.31;10376451;28;20233;-65
2023/06/06 18:41:05;;;;;;;5.22;3.00;;;;;;;24.93;32.70;99768.53;10371515;28;20259;-64
2023/06/06 18:46:10;;;;;;;3.67;2.92;;;;;;;26.25;31.13;99721.25;10348262;28;20229;-66
2023/06/06 18:51:13;;;;;;;2.72;2.53;;;;;;;25.86;31.12;99748.75;10384823;28;20615;-66
2023/06/06 18:56:15;;;;;;;8.07;2.85;;;;;;;26.85;30.51;99720.78;10381483;28;20241;-64
2023/06/06 19:01:17;;;;;;;6.25;3.05;;;;;;;26.24;31.16;99749.78;10367448;28;20311;-65
2023/06/06 19:06:19;;;;;;;4.05;3.08;;;;;;;26.02;31.62;99759.28;10334246;28;20356;-64
2023/06/06 19:11:21;;;;;;;6.05;2.70;;;;;;;25.37;32.13;99786.09;10335079;28;20725;-68
2023/06/06 19:16:23;;;;;;;5.10;2.55;;;;;;;24.61;32.99;99818.97;10329155;28;20233;-65
2023/06/06 19:21:24;;;;;;;5.10;2.95;;;;;;;25.29;32.08;99773.84;10333889;28;20229;-64
2023/06/06 19:26:26;;;;;;;11.98;3.22;;;;;;;25.10;32.29;99788.16;10349600;28;20240;-66
2023/06/06 19:31:28;;;;;;;6.35;2.65;;;;;;;24.53;32.76;99812.16;10387785;28;20255;-64
2023/06/06 19:36:30;;;;;;;2.95;2.40;;;;;;;23.75;33.26;99837.06;10390738;28;20251;-65
2023/06/06 19:41:32;;;;;;;4.40;2.65;;;;;;;24.20;33.39;99824.53;10389105;28;20295;-64
2023/06/06 19:46:34;;;;;;;6.43;2.80;;;;;;;25.08;32.18;99779.38;10392511;28;20334;-64
2023/06/06 19:51:36;;;;;;;7.53;2.80;;;;;;;24.38;33.17;99820.41;10390502;28;20236;-64
2023/06/06 19:56:38;;;;;;;4.90;3.08;;;;;;;22.89;35.10;99874.69;10375739;28;20237;-65
2023/06/06 20:01:40;;;;;;;5.82;2.95;;;;;;;23.75;33.57;99848.84;10341294;28;20240;-62
2023/06/06 20:06:41;;;;;;;4.93;2.65;;;;;;;22.40;35.23;99894.00;10341256;28;20238;-65
2023/06/06 20:11:43;;;;;;;3.42;2.88;;;;;;;23.81;33.85;99869.59;10344187;28;20268;-65
2023/06/06 20:16:45;;;;;;;4.22;3.20;;;;;;;24.45;32.97;99837.34;10344900;28;20264;-65
2023/06/06 20:21:47;;;;;;;3.30;2.47;;;;;;;23.20;34.25;99883.88;10361311;28;20260;-65
2023/06/06 20:26:48;;;;;;;3.17;2.80;;;;;;;22.55;34.96;99901.50;10384004;28;20236;-64
2023/06/06 20:31:50;;;;;;;2.65;2.45;;;;;;;23.66;33.78;99857.84;10387679;28;20232;-65
2023/06/06 20:36:52;;;;;;;4.25;2.97;;;;;;;22.96;34.29;99888.94;10371280;28;20272;-65
2023/06/06 20:41:55;;;;;;;3.20;2.78;;;;;;;21.02;37.42;99910.47;10347599;28;20853;-64
2023/06/06 20:46:57;;;;;;;3.72;3.10;;;;;;;21.57;37.56;99912.25;10342315;28;20257;-65
2023/06/06 20:51:59;;;;;;;6.22;3.00;;;;;;;21.90;36.80;99906.91;10363137;28;20237;-65
2023/06/06 20:57:01;;;;;;;4.15;2.80;;;;;;;20.48;38.17;99932.75;10384422;28;20247;-66
2023/06/06 21:02:04;;;;;;;6.53;3.00;;;;;;;22.48;35.65;99915.31;10389509;28;20228;-66
2023/06/06 21:07:06;;;;;;;5.57;3.10;;;;;;;20.67;36.74;99946.94;10388606;28;21413;-67
2023/06/06 21:12:08;;;;;;;11.57;3.30;;;;;;;20.41;37.17;99956.56;10368328;28;20608;-66
2023/06/06 21:17:10;;;;;;;4.00;2.92;;;;;;;21.93;36.30;99909.09;10345638;28;20240;-66
2023/06/06 21:22:12;;;;;;;4.35;2.70;;;;;;;22.97;34.79;99897.94;10343302;28;20747;-66
2023/06/06 21:27:14;;;;;;;4.05;2.83;;;;;;;22.25;35.17;99950.03;10346128;28;20328;-67
2023/06/06 21:32:16;;;;;;;5.80;3.20;;;;;;;22.24;35.30;99944.84;10344528;28;20394;-67
2023/06/06 21:37:21;;;;;;;5.97;3.15;;;;;;;22.44;34.59;99923.22;10363422;28;20610;-65
2023/06/06 21:42:24;;;;;;;3.33;2.85;;;;;;;20.78;35.97;99977.84;10386650;28;20237;-66
2023/06/06 21:47:25;;;;;;;8.20;3.22;;;;;;;19.50;37.68;99955.38;10358946;28;20242;-64
2023/06/06 21:52:27;;;;;;;3.75;3.30;;;;;;;20.34;37.41;99969.50;10340097;28;20226;-66
2023/06/06 21:57:33;;;;;;;4.93;3.10;;;;;;;20.97;36.67;99964.78;10342804;28;20230;-64
2023/06/06 22:02:34;;;;;;;10.32;3.22;;;;;;;21.52;35.75;99941.34;10341539;28;20785;-66
2023/06/06 22:07:40;;;;;;;7.43;3.75;;;;;;;21.40;35.84;99950.44;10342387;28;20237;-66
2023/06/06 22:12:42;;;;;;;4.32;3.30;;;;;;;21.36;35.86;99949.31;10343984;28;20233;-66
2023/06/06 22:17:43;;;;;;;6.38;3.63;;;;;;;20.02;37.23;99987.09;10342339;28;20249;-66
2023/06/06 22:22:45;;;;;;;5.00;2.65;;;;;;;20.91;36.24;99957.66;10341673;28;20237;-66
2023/06/06 22:27:47;;;;;;;3.58;3.00;;;;;;;19.38;38.15;99989.84;10345610;28;20877;-67
2023/06/06 22:32:49;;;;;;;4.13;2.90;;;;;;;17.54;40.78;99902.88;10367304;28;20739;-65
2023/06/06 22:37:55;;;;;;;3.53;3.22;;;;;;;18.62;40.03;99995.94;10362217;28;20252;-66
2023/06/06 22:42:56;;;;;;;5.45;3.38;;;;;;;19.75;38.86;99974.09;10349375;28;20688;-68
2023/06/06 22:47:59;;;;;;;6.20;3.38;;;;;;;20.51;37.68;99956.72;10342315;28;20237;-69
2023/06/06 22:53:00;;;;;;;6.05;3.03;;;;;;;19.76;38.62;99996.63;10341065;28;20248;-66
2023/06/06 22:58:02;;;;;;;5.15;3.00;;;;;;;19.15;38.81;99996.94;10343892;28;20233;-65
2023/06/06 23:03:04;;;;;;;3.28;2.97;;;;;;;19.44;38.53;99997.03;10337460;28;20241;-67
2023/06/06 23:08:06;;;;;;;5.13;3.20;;;;;;;18.83;39.51;99999.16;10341684;28;20261;-68
2023/06/06 23:13:08;;;;;;;3.92;3.30;;;;;;;18.86;39.89;99987.00;10339213;28;20998;-67
2023/06/06 23:18:09;;;;;;;4.03;3.20;;;;;;;18.56;40.42;99987.94;10337281;28;20230;-66
2023/06/06 23:23:11;;;;;;;4.65;3.00;;;;;;;17.54;41.58;99970.50;10341442;28;20341;-68
2023/06/06 23:28:13;;;;;;;5.63;3.00;;;;;;;16.97;42.02;99943.66;10341268;28;20233;-67
2023/06/06 23:33:15;;;;;;;5.35;2.80;;;;;;;17.97;40.08;99985.00;10337026;28;20317;-67